Winterthur, Delaware
Current Conditions -  °F | °C
As of 5:51 AM on Thursday 23 Oct 2014 (Local Time) from KILG Reporting Station
Overcast Overcast  
Wind Chill: 52°   Ceiling: 3600
Heat Index: 52°   Visibility: 10mi
Dew Point: 44°   Wind: 14mph
Humidity: 74%   Direction: 330°NNW
Pressure: 29.79"   Gusts: 25mph
Location:  39.8°N, 75.61°W
Report Text: KILG 230951Z 33012G22KT 10SM BKN036 BKN045 OVC080 11/07 A2979 RMK AO2 SLP088 T01110067
Loading
Personal Weather Stations






























Interactive Weather Map
Tropical Storm Tracking
New forecast layout! Learn more

10-Day Weather Forecast

Advertisements
Track Severe Weather on mobile